This is the latest recevied weather packets stored in our database for station/object DH0DM-13. If no packets are shown the sender has not sent any weather packets the latest 10 day(s).
| Time | Temp. | Humidity | Pressure | Rain* | Wind** | Luminosity | Snow |
|---|---|---|---|---|---|---|---|
| 1788144030 | 16.67° C | 75% | 986.4 hPa | 0 mm | 4.47 m/s, 108° | - | - |
| 1788143429 | 16.11° C | 76% | 986.5 hPa | 0 mm | 0 m/s | - | - |
| 1788142828 | 15.56° C | 78% | 986.6 hPa | 0 mm | 0.45 m/s, 233° | - | - |
| 1788142227 | 14.44° C | 83% | 986.5 hPa | 0 mm | 0 m/s | - | - |
| 1788141626 | 14.44° C | 83% | 987 hPa | 0 mm | 0 m/s | - | - |
| 1788141025 | 14.44° C | 84% | 987 hPa | 0 mm | 0.45 m/s, 49° | - | - |
| 1788140424 | 15° C | 83% | 987.1 hPa | 0 mm | 0 m/s | - | - |
| 1788139823 | 15° C | 83% | 987.1 hPa | 0 mm | 4.02 m/s, 63° | - | - |
| 1788139222 | 14.44° C | 84% | 987.3 hPa | 0 mm | 1.79 m/s, 39° | - | - |
| 1788138621 | 15° C | 83% | 987.5 hPa | 0 mm | 0.89 m/s, 329° | - | - |
| 1788138020 | 15° C | 83% | 987.4 hPa | 0 mm | 4.47 m/s, 72° | - | - |
| 1788137419 | 15.56° C | 82% | 987.7 hPa | 0 mm | 0.45 m/s, 71° | - | - |
| 1788136818 | 15° C | 83% | 987.6 hPa | 0 mm | 4.02 m/s, 72° | - | - |
| 1788136217 | 14.44° C | 86% | 987.7 hPa | 0 mm | 0 m/s | - | - |
| 1788135616 | 13.89° C | 89% | 987.9 hPa | 0 mm | 0.45 m/s, 76° | - | - |
| 1788135014 | 13.89° C | 89% | 988.1 hPa | 0 mm | 0 m/s | - | - |
| 1788134412 | 13.89° C | 88% | 987.9 hPa | 0 mm | 0 m/s | - | - |
| 1788133811 | 14.44° C | 86% | 987.8 hPa | 0 mm | 0 m/s | - | - |
| 1788133209 | 15° C | 85% | 987.9 hPa | 0 mm | 0 m/s | - | - |
| 1788132608 | 14.44° C | 86% | 987.8 hPa | 0 mm | 2.24 m/s, 59° | - | - |
| 1788132007 | 14.44° C | 88% | 987.8 hPa | 0 mm | 0 m/s | - | - |
| 1788131406 | 14.44° C | 87% | 987.8 hPa | 0 mm | 0 m/s | - | - |
| 1788130806 | 14.44° C | 87% | 988 hPa | 0 mm | 0 m/s | - | - |
| 1788130205 | 14.44° C | 88% | 987.8 hPa | 0 mm | 0 m/s | - | - |
| 1788129604 | 14.44° C | 88% | 988 hPa | 0 mm | 0 m/s | - | - |
* Rain since midnight (hover to see other rain measurements)
** Current wind speed in m/s (hover to see current wind gust speed)